sensor_id;sensor_type;location;lat;lon;timestamp;P1;durP1;ratioP1;P2;durP2;ratioP2
11414;SDS011;5763;42.714;23.244;2022-09-20T00:00:30;0.70;;;0.70;;
11414;SDS011;5763;42.714;23.244;2022-09-20T00:02:57;1.02;;;0.82;;
11414;SDS011;5763;42.714;23.244;2022-09-20T00:05:24;0.90;;;0.80;;
11414;SDS011;5763;42.714;23.244;2022-09-20T00:07:51;1.15;;;0.90;;
11414;SDS011;5763;42.714;23.244;2022-09-20T00:10:17;0.77;;;0.70;;
11414;SDS011;5763;42.714;23.244;2022-09-20T00:12:46;0.85;;;0.77;;
11414;SDS011;5763;42.714;23.244;2022-09-20T00:15:13;0.80;;;0.80;;
11414;SDS011;5763;42.714;23.244;2022-09-20T00:17:41;0.63;;;0.63;;
11414;SDS011;5763;42.714;23.244;2022-09-20T00:20:08;0.60;;;0.60;;
11414;SDS011;5763;42.714;23.244;2022-09-20T00:22:35;0.68;;;0.68;;
11414;SDS011;5763;42.714;23.244;2022-09-20T00:25:02;1.13;;;0.90;;
11414;SDS011;5763;42.714;23.244;2022-09-20T00:27:28;0.70;;;0.70;;
11414;SDS011;5763;42.714;23.244;2022-09-20T00:29:56;0.60;;;0.60;;
11414;SDS011;5763;42.714;23.244;2022-09-20T00:32:23;0.73;;;0.60;;
11414;SDS011;5763;42.714;23.244;2022-09-20T00:34:51;0.70;;;0.70;;
11414;SDS011;5763;42.714;23.244;2022-09-20T00:37:32;0.90;;;0.80;;
11414;SDS011;5763;42.714;23.244;2022-09-20T00:39:58;0.98;;;0.80;;
11414;SDS011;5763;42.714;23.244;2022-09-20T00:42:26;0.70;;;0.70;;
11414;SDS011;5763;42.714;23.244;2022-09-20T00:44:57;0.70;;;0.70;;
11414;SDS011;5763;42.714;23.244;2022-09-20T00:47:29;0.98;;;0.70;;
11414;SDS011;5763;42.714;23.244;2022-09-20T00:50:06;0.80;;;0.80;;
11414;SDS011;5763;42.714;23.244;2022-09-20T00:52:40;0.60;;;0.60;;
11414;SDS011;5763;42.714;23.244;2022-09-20T00:55:11;0.90;;;0.80;;
11414;SDS011;5763;42.714;23.244;2022-09-20T00:57:40;0.80;;;0.80;;
11414;SDS011;5763;42.714;23.244;2022-09-20T01:00:10;1.50;;;0.70;;
11414;SDS011;5763;42.714;23.244;2022-09-20T01:02:39;1.13;;;0.80;;
11414;SDS011;5763;42.714;23.244;2022-09-20T01:05:09;0.80;;;0.70;;
11414;SDS011;5763;42.714;23.244;2022-09-20T01:07:39;0.80;;;0.80;;
11414;SDS011;5763;42.714;23.244;2022-09-20T01:10:09;1.63;;;0.90;;
11414;SDS011;5763;42.714;23.244;2022-09-20T01:12:36;1.75;;;1.00;;
11414;SDS011;5763;42.714;23.244;2022-09-20T01:15:05;1.13;;;1.02;;
11414;SDS011;5763;42.714;23.244;2022-09-20T01:17:34;1.10;;;1.00;;
11414;SDS011;5763;42.714;23.244;2022-09-20T01:20:07;1.42;;;1.00;;
11414;SDS011;5763;42.714;23.244;2022-09-20T01:26:02;0.98;;;0.90;;
11414;SDS011;5763;42.714;23.244;2022-09-20T01:29:07;1.10;;;1.00;;
11414;SDS011;5763;42.714;23.244;2022-09-20T01:31:43;2.08;;;1.02;;
11414;SDS011;5763;42.714;23.244;2022-09-20T01:34:16;1.10;;;1.00;;
11414;SDS011;5763;42.714;23.244;2022-09-20T01:36:50;0.90;;;0.90;;
11414;SDS011;5763;42.714;23.244;2022-09-20T01:39:22;0.80;;;0.80;;
11414;SDS011;5763;42.714;23.244;2022-09-20T01:42:01;1.17;;;1.08;;
11414;SDS011;5763;42.714;23.244;2022-09-20T01:44:34;1.23;;;1.08;;
11414;SDS011;5763;42.714;23.244;2022-09-20T01:47:10;1.55;;;1.00;;
11414;SDS011;5763;42.714;23.244;2022-09-20T01:49:44;0.90;;;0.90;;
11414;SDS011;5763;42.714;23.244;2022-09-20T01:52:36;1.95;;;1.10;;
11414;SDS011;5763;42.714;23.244;2022-09-20T01:55:45;1.58;;;1.15;;
11414;SDS011;5763;42.714;23.244;2022-09-20T02:01:37;1.30;;;1.20;;
11414;SDS011;5763;42.714;23.244;2022-09-20T02:07:36;1.92;;;1.17;;
11414;SDS011;5763;42.714;23.244;2022-09-20T02:10:27;1.20;;;1.10;;
11414;SDS011;5763;42.714;23.244;2022-09-20T02:13:05;2.35;;;1.08;;
11414;SDS011;5763;42.714;23.244;2022-09-20T02:15:44;1.27;;;1.17;;
11414;SDS011;5763;42.714;23.244;2022-09-20T02:18:40;1.65;;;1.55;;
11414;SDS011;5763;42.714;23.244;2022-09-20T02:21:22;1.08;;;0.98;;
11414;SDS011;5763;42.714;23.244;2022-09-20T02:24:00;1.33;;;1.23;;
11414;SDS011;5763;42.714;23.244;2022-09-20T02:26:39;1.10;;;1.02;;
11414;SDS011;5763;42.714;23.244;2022-09-20T02:29:18;1.38;;;1.27;;
11414;SDS011;5763;42.714;23.244;2022-09-20T02:31:59;1.10;;;1.00;;
11414;SDS011;5763;42.714;23.244;2022-09-20T02:34:48;0.95;;;0.95;;
11414;SDS011;5763;42.714;23.244;2022-09-20T02:37:39;1.25;;;1.15;;
11414;SDS011;5763;42.714;23.244;2022-09-20T02:40:17;1.30;;;1.20;;
11414;SDS011;5763;42.714;23.244;2022-09-20T02:42:54;1.42;;;1.33;;
11414;SDS011;5763;42.714;23.244;2022-09-20T02:45:28;1.45;;;1.20;;
11414;SDS011;5763;42.714;23.244;2022-09-20T02:48:02;1.42;;;1.30;;
11414;SDS011;5763;42.714;23.244;2022-09-20T02:50:34;1.50;;;1.40;;
11414;SDS011;5763;42.714;23.244;2022-09-20T02:53:10;1.50;;;1.40;;
11414;SDS011;5763;42.714;23.244;2022-09-20T02:55:49;2.05;;;1.35;;
11414;SDS011;5763;42.714;23.244;2022-09-20T02:58:30;2.20;;;1.48;;
11414;SDS011;5763;42.714;23.244;2022-09-20T03:01:08;1.60;;;1.50;;
11414;SDS011;5763;42.714;23.244;2022-09-20T03:03:45;1.95;;;1.73;;
11414;SDS011;5763;42.714;23.244;2022-09-20T03:06:25;1.60;;;1.50;;
11414;SDS011;5763;42.714;23.244;2022-09-20T03:09:00;2.10;;;1.90;;
11414;SDS011;5763;42.714;23.244;2022-09-20T03:11:35;1.77;;;1.67;;
11414;SDS011;5763;42.714;23.244;2022-09-20T03:14:15;2.85;;;2.03;;
11414;SDS011;5763;42.714;23.244;2022-09-20T03:16:50;1.75;;;1.35;;
11414;SDS011;5763;42.714;23.244;2022-09-20T03:19:40;1.50;;;1.40;;
11414;SDS011;5763;42.714;23.244;2022-09-20T03:22:17;1.55;;;1.45;;
11414;SDS011;5763;42.714;23.244;2022-09-20T03:24:56;1.50;;;1.30;;
11414;SDS011;5763;42.714;23.244;2022-09-20T03:27:37;2.05;;;1.40;;
11414;SDS011;5763;42.714;23.244;2022-09-20T03:30:15;2.03;;;1.35;;
11414;SDS011;5763;42.714;23.244;2022-09-20T03:32:55;1.55;;;1.45;;
11414;SDS011;5763;42.714;23.244;2022-09-20T03:35:35;1.40;;;1.30;;
11414;SDS011;5763;42.714;23.244;2022-09-20T03:38:17;1.38;;;1.27;;
11414;SDS011;5763;42.714;23.244;2022-09-20T03:41:09;1.02;;;0.93;;
11414;SDS011;5763;42.714;23.244;2022-09-20T03:43:53;2.25;;;1.30;;
11414;SDS011;5763;42.714;23.244;2022-09-20T03:46:36;2.67;;;1.42;;
11414;SDS011;5763;42.714;23.244;2022-09-20T03:49:28;1.20;;;1.10;;
11414;SDS011;5763;42.714;23.244;2022-09-20T03:52:17;2.45;;;1.00;;
11414;SDS011;5763;42.714;23.244;2022-09-20T03:58:05;1.35;;;1.25;;
11414;SDS011;5763;42.714;23.244;2022-09-20T04:00:46;3.90;;;1.10;;
11414;SDS011;5763;42.714;23.244;2022-09-20T04:03:34;1.52;;;1.42;;
11414;SDS011;5763;42.714;23.244;2022-09-20T04:09:12;2.38;;;1.45;;
11414;SDS011;5763;42.714;23.244;2022-09-20T04:11:54;1.55;;;1.20;;
11414;SDS011;5763;42.714;23.244;2022-09-20T04:14:30;2.03;;;1.33;;
11414;SDS011;5763;42.714;23.244;2022-09-20T04:17:04;1.92;;;1.65;;
11414;SDS011;5763;42.714;23.244;2022-09-20T04:19:48;1.50;;;1.40;;
11414;SDS011;5763;42.714;23.244;2022-09-20T04:22:20;1.85;;;1.60;;
11414;SDS011;5763;42.714;23.244;2022-09-20T04:24:51;1.70;;;1.60;;
11414;SDS011;5763;42.714;23.244;2022-09-20T04:27:24;1.58;;;1.45;;
11414;SDS011;5763;42.714;23.244;2022-09-20T04:29:54;1.85;;;1.50;;
11414;SDS011;5763;42.714;23.244;2022-09-20T04:32:27;1.95;;;1.60;;
11414;SDS011;5763;42.714;23.244;2022-09-20T04:35:02;1.60;;;1.50;;
11414;SDS011;5763;42.714;23.244;2022-09-20T04:37:48;1.67;;;1.58;;
11414;SDS011;5763;42.714;23.244;2022-09-20T04:40:21;1.35;;;1.25;;
11414;SDS011;5763;42.714;23.244;2022-09-20T04:46:24;1.75;;;1.65;;
11414;SDS011;5763;42.714;23.244;2022-09-20T04:49:27;1.88;;;1.60;;
11414;SDS011;5763;42.714;23.244;2022-09-20T04:55:48;1.67;;;1.58;;
11414;SDS011;5763;42.714;23.244;2022-09-20T05:07:25;1.85;;;1.60;;
11414;SDS011;5763;42.714;23.244;2022-09-20T05:13:40;1.70;;;1.45;;
11414;SDS011;5763;42.714;23.244;2022-09-20T05:16:22;3.28;;;1.45;;
11414;SDS011;5763;42.714;23.244;2022-09-20T05:19:11;1.73;;;1.52;;
11414;SDS011;5763;42.714;23.244;2022-09-20T05:21:55;1.50;;;1.40;;
11414;SDS011;5763;42.714;23.244;2022-09-20T05:27:49;2.05;;;1.50;;
11414;SDS011;5763;42.714;23.244;2022-09-20T05:30:29;1.60;;;1.50;;
11414;SDS011;5763;42.714;23.244;2022-09-20T05:33:08;1.40;;;1.30;;
11414;SDS011;5763;42.714;23.244;2022-09-20T05:35:43;1.55;;;1.27;;
11414;SDS011;5763;42.714;23.244;2022-09-20T05:38:21;3.05;;;1.40;;
11414;SDS011;5763;42.714;23.244;2022-09-20T05:41:05;1.55;;;1.27;;
11414;SDS011;5763;42.714;23.244;2022-09-20T05:43:41;1.63;;;1.30;;
11414;SDS011;5763;42.714;23.244;2022-09-20T05:46:24;1.50;;;1.20;;
11414;SDS011;5763;42.714;23.244;2022-09-20T05:49:01;3.22;;;1.55;;
11414;SDS011;5763;42.714;23.244;2022-09-20T05:51:41;2.75;;;1.50;;
11414;SDS011;5763;42.714;23.244;2022-09-20T05:57:30;2.08;;;1.20;;
11414;SDS011;5763;42.714;23.244;2022-09-20T06:00:09;1.83;;;1.40;;
11414;SDS011;5763;42.714;23.244;2022-09-20T06:02:45;3.85;;;2.92;;
11414;SDS011;5763;42.714;23.244;2022-09-20T06:05:23;2.38;;;1.73;;
11414;SDS011;5763;42.714;23.244;2022-09-20T06:08:03;1.75;;;1.65;;
11414;SDS011;5763;42.714;23.244;2022-09-20T06:10:43;2.15;;;1.90;;
11414;SDS011;5763;42.714;23.244;2022-09-20T06:13:32;2.22;;;1.33;;
11414;SDS011;5763;42.714;23.244;2022-09-20T06:16:08;3.38;;;1.20;;
11414;SDS011;5763;42.714;23.244;2022-09-20T06:18:39;1.40;;;1.02;;
11414;SDS011;5763;42.714;23.244;2022-09-20T06:21:14;2.65;;;1.33;;
11414;SDS011;5763;42.714;23.244;2022-09-20T06:23:51;1.30;;;1.08;;
11414;SDS011;5763;42.714;23.244;2022-09-20T06:26:22;1.77;;;1.42;;
11414;SDS011;5763;42.714;23.244;2022-09-20T06:28:53;1.55;;;1.40;;
11414;SDS011;5763;42.714;23.244;2022-09-20T06:31:24;1.45;;;1.30;;
11414;SDS011;5763;42.714;23.244;2022-09-20T06:33:53;1.15;;;1.00;;
11414;SDS011;5763;42.714;23.244;2022-09-20T06:36:24;1.00;;;0.90;;
11414;SDS011;5763;42.714;23.244;2022-09-20T06:39:14;1.15;;;0.95;;
11414;SDS011;5763;42.714;23.244;2022-09-20T06:42:04;1.25;;;1.10;;
11414;SDS011;5763;42.714;23.244;2022-09-20T06:44:34;1.15;;;1.05;;
11414;SDS011;5763;42.714;23.244;2022-09-20T06:47:05;0.85;;;0.82;;
11414;SDS011;5763;42.714;23.244;2022-09-20T06:49:33;2.65;;;1.15;;
11414;SDS011;5763;42.714;23.244;2022-09-20T06:52:01;1.10;;;1.00;;
11414;SDS011;5763;42.714;23.244;2022-09-20T06:54:29;1.10;;;1.00;;
11414;SDS011;5763;42.714;23.244;2022-09-20T06:56:57;1.13;;;1.00;;
11414;SDS011;5763;42.714;23.244;2022-09-20T06:59:27;1.42;;;1.15;;
11414;SDS011;5763;42.714;23.244;2022-09-20T07:01:53;1.23;;;0.90;;
11414;SDS011;5763;42.714;23.244;2022-09-20T07:04:20;1.65;;;0.90;;
11414;SDS011;5763;42.714;23.244;2022-09-20T07:06:48;1.33;;;1.17;;
11414;SDS011;5763;42.714;23.244;2022-09-20T07:09:15;1.27;;;1.00;;
11414;SDS011;5763;42.714;23.244;2022-09-20T07:11:42;1.23;;;0.80;;
11414;SDS011;5763;42.714;23.244;2022-09-20T07:14:10;0.88;;;0.80;;
11414;SDS011;5763;42.714;23.244;2022-09-20T07:16:37;1.25;;;0.90;;
11414;SDS011;5763;42.714;23.244;2022-09-20T07:19:03;1.15;;;1.02;;
11414;SDS011;5763;42.714;23.244;2022-09-20T07:21:31;1.50;;;1.20;;
11414;SDS011;5763;42.714;23.244;2022-09-20T07:23:59;0.82;;;0.82;;
11414;SDS011;5763;42.714;23.244;2022-09-20T07:26:26;1.33;;;1.23;;
11414;SDS011;5763;42.714;23.244;2022-09-20T07:28:55;1.48;;;1.27;;
11414;SDS011;5763;42.714;23.244;2022-09-20T07:31:23;1.10;;;1.00;;
11414;SDS011;5763;42.714;23.244;2022-09-20T07:33:51;1.10;;;1.00;;
11414;SDS011;5763;42.714;23.244;2022-09-20T07:36:18;1.20;;;1.10;;
11414;SDS011;5763;42.714;23.244;2022-09-20T07:38:45;1.60;;;1.10;;
11414;SDS011;5763;42.714;23.244;2022-09-20T07:41:16;2.35;;;1.23;;
11414;SDS011;5763;42.714;23.244;2022-09-20T07:43:44;1.00;;;0.90;;
11414;SDS011;5763;42.714;23.244;2022-09-20T07:46:11;2.97;;;1.20;;
11414;SDS011;5763;42.714;23.244;2022-09-20T07:48:39;0.95;;;0.82;;
11414;SDS011;5763;42.714;23.244;2022-09-20T07:51:07;1.17;;;0.88;;
11414;SDS011;5763;42.714;23.244;2022-09-20T07:53:35;2.03;;;0.80;;
11414;SDS011;5763;42.714;23.244;2022-09-20T07:56:03;2.85;;;1.10;;
11414;SDS011;5763;42.714;23.244;2022-09-20T07:58:33;1.90;;;1.00;;
11414;SDS011;5763;42.714;23.244;2022-09-20T08:01:07;1.30;;;1.10;;
11414;SDS011;5763;42.714;23.244;2022-09-20T08:03:35;1.10;;;0.90;;
11414;SDS011;5763;42.714;23.244;2022-09-20T08:06:03;1.15;;;1.00;;
11414;SDS011;5763;42.714;23.244;2022-09-20T08:08:31;2.92;;;1.00;;
11414;SDS011;5763;42.714;23.244;2022-09-20T08:11:01;2.80;;;1.00;;
11414;SDS011;5763;42.714;23.244;2022-09-20T08:13:30;0.60;;;0.60;;
11414;SDS011;5763;42.714;23.244;2022-09-20T08:16:02;0.73;;;0.73;;
11414;SDS011;5763;42.714;23.244;2022-09-20T08:18:29;0.98;;;0.82;;
11414;SDS011;5763;42.714;23.244;2022-09-20T08:21:01;0.57;;;0.57;;
11414;SDS011;5763;42.714;23.244;2022-09-20T08:23:32;0.82;;;0.70;;
11414;SDS011;5763;42.714;23.244;2022-09-20T08:25:59;0.60;;;0.60;;
11414;SDS011;5763;42.714;23.244;2022-09-20T08:28:26;0.88;;;0.73;;
11414;SDS011;5763;42.714;23.244;2022-09-20T08:31:00;0.80;;;0.75;;
11414;SDS011;5763;42.714;23.244;2022-09-20T08:33:28;0.70;;;0.65;;
11414;SDS011;5763;42.714;23.244;2022-09-20T08:35:54;2.42;;;0.70;;
11414;SDS011;5763;42.714;23.244;2022-09-20T08:38:21;1.33;;;0.70;;
11414;SDS011;5763;42.714;23.244;2022-09-20T08:40:52;0.80;;;0.70;;
11414;SDS011;5763;42.714;23.244;2022-09-20T08:43:22;0.60;;;0.50;;
11414;SDS011;5763;42.714;23.244;2022-09-20T08:45:53;0.90;;;0.68;;
11414;SDS011;5763;42.714;23.244;2022-09-20T08:48:22;1.70;;;0.70;;
11414;SDS011;5763;42.714;23.244;2022-09-20T08:50:56;0.50;;;0.50;;
11414;SDS011;5763;42.714;23.244;2022-09-20T08:53:23;1.60;;;0.70;;
11414;SDS011;5763;42.714;23.244;2022-09-20T08:55:53;0.70;;;0.70;;
11414;SDS011;5763;42.714;23.244;2022-09-20T08:58:21;1.30;;;0.82;;
11414;SDS011;5763;42.714;23.244;2022-09-20T09:00:49;1.13;;;0.70;;
11414;SDS011;5763;42.714;23.244;2022-09-20T09:03:16;0.63;;;0.60;;
11414;SDS011;5763;42.714;23.244;2022-09-20T09:05:45;1.58;;;0.60;;
11414;SDS011;5763;42.714;23.244;2022-09-20T09:08:14;1.58;;;0.82;;
11414;SDS011;5763;42.714;23.244;2022-09-20T09:10:46;0.80;;;0.80;;
11414;SDS011;5763;42.714;23.244;2022-09-20T09:13:19;1.40;;;1.30;;
11414;SDS011;5763;42.714;23.244;2022-09-20T09:15:52;3.33;;;1.88;;
11414;SDS011;5763;42.714;23.244;2022-09-20T09:18:23;3.30;;;1.67;;
11414;SDS011;5763;42.714;23.244;2022-09-20T09:20:58;1.73;;;1.63;;
11414;SDS011;5763;42.714;23.244;2022-09-20T09:23:28;1.50;;;1.40;;
11414;SDS011;5763;42.714;23.244;2022-09-20T09:26:00;1.30;;;1.15;;
11414;SDS011;5763;42.714;23.244;2022-09-20T09:28:30;2.65;;;0.80;;
11414;SDS011;5763;42.714;23.244;2022-09-20T09:31:11;1.27;;;1.00;;
11414;SDS011;5763;42.714;23.244;2022-09-20T09:33:42;1.10;;;1.00;;
11414;SDS011;5763;42.714;23.244;2022-09-20T09:36:13;1.27;;;0.80;;
11414;SDS011;5763;42.714;23.244;2022-09-20T09:38:42;1.42;;;0.60;;
11414;SDS011;5763;42.714;23.244;2022-09-20T09:41:21;1.25;;;0.60;;
11414;SDS011;5763;42.714;23.244;2022-09-20T09:43:56;0.93;;;0.60;;
11414;SDS011;5763;42.714;23.244;2022-09-20T09:46:25;0.65;;;0.50;;
11414;SDS011;5763;42.714;23.244;2022-09-20T09:49:03;1.00;;;0.57;;
11414;SDS011;5763;42.714;23.244;2022-09-20T09:51:34;6.07;;;0.80;;
11414;SDS011;5763;42.714;23.244;2022-09-20T09:54:02;1.45;;;0.63;;
11414;SDS011;5763;42.714;23.244;2022-09-20T09:56:31;0.82;;;0.80;;
11414;SDS011;5763;42.714;23.244;2022-09-20T10:02:13;1.15;;;0.60;;
11414;SDS011;5763;42.714;23.244;2022-09-20T10:04:55;0.63;;;0.63;;
11414;SDS011;5763;42.714;23.244;2022-09-20T10:07:31;0.90;;;0.70;;
11414;SDS011;5763;42.714;23.244;2022-09-20T10:10:06;0.60;;;0.60;;
11414;SDS011;5763;42.714;23.244;2022-09-20T10:12:44;0.70;;;0.70;;
11414;SDS011;5763;42.714;23.244;2022-09-20T10:15:23;0.82;;;0.70;;
11414;SDS011;5763;42.714;23.244;2022-09-20T10:18:01;0.82;;;0.70;;
11414;SDS011;5763;42.714;23.244;2022-09-20T10:20:48;0.50;;;0.50;;
11414;SDS011;5763;42.714;23.244;2022-09-20T10:23:26;0.80;;;0.60;;
11414;SDS011;5763;42.714;23.244;2022-09-20T10:26:02;1.20;;;0.68;;
11414;SDS011;5763;42.714;23.244;2022-09-20T10:28:40;1.60;;;0.70;;
11414;SDS011;5763;42.714;23.244;2022-09-20T10:31:26;0.68;;;0.68;;
11414;SDS011;5763;42.714;23.244;2022-09-20T10:37:16;0.80;;;0.70;;
11414;SDS011;5763;42.714;23.244;2022-09-20T10:39:53;0.75;;;0.63;;
11414;SDS011;5763;42.714;23.244;2022-09-20T10:42:33;0.82;;;0.70;;
11414;SDS011;5763;42.714;23.244;2022-09-20T10:45:27;0.70;;;0.70;;
11414;SDS011;5763;42.714;23.244;2022-09-20T10:48:00;1.15;;;0.80;;
11414;SDS011;5763;42.714;23.244;2022-09-20T10:50:32;1.20;;;0.70;;
11414;SDS011;5763;42.714;23.244;2022-09-20T10:53:07;0.73;;;0.73;;
11414;SDS011;5763;42.714;23.244;2022-09-20T10:55:48;0.70;;;0.70;;
11414;SDS011;5763;42.714;23.244;2022-09-20T11:01:28;0.88;;;0.88;;
11414;SDS011;5763;42.714;23.244;2022-09-20T11:07:09;1.25;;;1.13;;
11414;SDS011;5763;42.714;23.244;2022-09-20T11:09:39;0.85;;;0.85;;
11414;SDS011;5763;42.714;23.244;2022-09-20T11:12:12;1.00;;;1.00;;
11414;SDS011;5763;42.714;23.244;2022-09-20T11:14:44;0.90;;;0.90;;
11414;SDS011;5763;42.714;23.244;2022-09-20T11:17:16;1.40;;;0.60;;
11414;SDS011;5763;42.714;23.244;2022-09-20T11:19:51;0.70;;;0.70;;
11414;SDS011;5763;42.714;23.244;2022-09-20T11:22:26;1.10;;;0.82;;
11414;SDS011;5763;42.714;23.244;2022-09-20T11:25:01;0.88;;;0.75;;
11414;SDS011;5763;42.714;23.244;2022-09-20T11:27:39;2.00;;;0.85;;
11414;SDS011;5763;42.714;23.244;2022-09-20T11:30:13;0.65;;;0.60;;
11414;SDS011;5763;42.714;23.244;2022-09-20T11:32:42;0.60;;;0.60;;
11414;SDS011;5763;42.714;23.244;2022-09-20T11:35:20;1.58;;;0.80;;
11414;SDS011;5763;42.714;23.244;2022-09-20T11:37:56;0.52;;;0.52;;
11414;SDS011;5763;42.714;23.244;2022-09-20T11:40:31;1.10;;;1.00;;
11414;SDS011;5763;42.714;23.244;2022-09-20T11:43:05;2.47;;;0.80;;
11414;SDS011;5763;42.714;23.244;2022-09-20T11:45:35;0.65;;;0.65;;
11414;SDS011;5763;42.714;23.244;2022-09-20T11:48:07;0.60;;;0.60;;
11414;SDS011;5763;42.714;23.244;2022-09-20T11:53:39;0.63;;;0.63;;
11414;SDS011;5763;42.714;23.244;2022-09-20T11:56:16;1.00;;;0.80;;
11414;SDS011;5763;42.714;23.244;2022-09-20T11:58:47;0.65;;;0.65;;
11414;SDS011;5763;42.714;23.244;2022-09-20T12:01:22;1.83;;;1.27;;
11414;SDS011;5763;42.714;23.244;2022-09-20T12:03:52;4.25;;;1.48;;
11414;SDS011;5763;42.714;23.244;2022-09-20T12:06:23;2.45;;;1.25;;
11414;SDS011;5763;42.714;23.244;2022-09-20T12:08:55;1.48;;;0.98;;
11414;SDS011;5763;42.714;23.244;2022-09-20T12:11:25;1.30;;;0.90;;
11414;SDS011;5763;42.714;23.244;2022-09-20T12:13:58;1.13;;;0.93;;
11414;SDS011;5763;42.714;23.244;2022-09-20T12:16:36;0.80;;;0.60;;
11414;SDS011;5763;42.714;23.244;2022-09-20T12:19:05;0.73;;;0.70;;
11414;SDS011;5763;42.714;23.244;2022-09-20T12:24:36;2.47;;;0.80;;
11414;SDS011;5763;42.714;23.244;2022-09-20T12:27:18;0.70;;;0.60;;
11414;SDS011;5763;42.714;23.244;2022-09-20T12:32:42;0.63;;;0.63;;
11414;SDS011;5763;42.714;23.244;2022-09-20T12:38:27;1.95;;;1.00;;
11414;SDS011;5763;42.714;23.244;2022-09-20T12:41:00;1.50;;;0.60;;
11414;SDS011;5763;42.714;23.244;2022-09-20T12:43:29;2.58;;;0.70;;
11414;SDS011;5763;42.714;23.244;2022-09-20T12:46:02;0.70;;;0.60;;
11414;SDS011;5763;42.714;23.244;2022-09-20T12:48:33;0.90;;;0.70;;
11414;SDS011;5763;42.714;23.244;2022-09-20T12:51:03;0.75;;;0.70;;
11414;SDS011;5763;42.714;23.244;2022-09-20T12:54:02;0.70;;;0.70;;
11414;SDS011;5763;42.714;23.244;2022-09-20T12:56:32;0.68;;;0.68;;
11414;SDS011;5763;42.714;23.244;2022-09-20T12:59:01;0.75;;;0.75;;
11414;SDS011;5763;42.714;23.244;2022-09-20T13:01:34;0.70;;;0.70;;
11414;SDS011;5763;42.714;23.244;2022-09-20T13:07:39;0.60;;;0.60;;
11414;SDS011;5763;42.714;23.244;2022-09-20T13:10:28;1.45;;;0.70;;
11414;SDS011;5763;42.714;23.244;2022-09-20T13:13:03;0.60;;;0.60;;
11414;SDS011;5763;42.714;23.244;2022-09-20T13:15:37;0.70;;;0.57;;
11414;SDS011;5763;42.714;23.244;2022-09-20T13:18:06;0.75;;;0.60;;
11414;SDS011;5763;42.714;23.244;2022-09-20T13:20:39;1.85;;;0.70;;
11414;SDS011;5763;42.714;23.244;2022-09-20T13:23:08;1.60;;;0.60;;
11414;SDS011;5763;42.714;23.244;2022-09-20T13:25:44;0.73;;;0.70;;
11414;SDS011;5763;42.714;23.244;2022-09-20T13:28:15;1.00;;;0.70;;
11414;SDS011;5763;42.714;23.244;2022-09-20T13:33:51;0.85;;;0.80;;
11414;SDS011;5763;42.714;23.244;2022-09-20T13:36:19;0.70;;;0.70;;
11414;SDS011;5763;42.714;23.244;2022-09-20T13:38:51;0.45;;;0.40;;
11414;SDS011;5763;42.714;23.244;2022-09-20T13:41:19;0.75;;;0.70;;
11414;SDS011;5763;42.714;23.244;2022-09-20T13:43:47;0.88;;;0.68;;
11414;SDS011;5763;42.714;23.244;2022-09-20T13:46:16;0.60;;;0.60;;
11414;SDS011;5763;42.714;23.244;2022-09-20T13:48:53;0.73;;;0.60;;
11414;SDS011;5763;42.714;23.244;2022-09-20T13:51:34;0.50;;;0.50;;
11414;SDS011;5763;42.714;23.244;2022-09-20T13:54:16;0.50;;;0.50;;
11414;SDS011;5763;42.714;23.244;2022-09-20T13:56:46;1.17;;;0.73;;
11414;SDS011;5763;42.714;23.244;2022-09-20T13:59:13;0.52;;;0.52;;
11414;SDS011;5763;42.714;23.244;2022-09-20T14:01:44;0.60;;;0.60;;
11414;SDS011;5763;42.714;23.244;2022-09-20T14:04:17;0.90;;;0.82;;
11414;SDS011;5763;42.714;23.244;2022-09-20T14:06:47;1.15;;;0.80;;
11414;SDS011;5763;42.714;23.244;2022-09-20T14:09:17;0.85;;;0.80;;
11414;SDS011;5763;42.714;23.244;2022-09-20T14:11:48;0.70;;;0.70;;
11414;SDS011;5763;42.714;23.244;2022-09-20T14:14:15;0.80;;;0.70;;
11414;SDS011;5763;42.714;23.244;2022-09-20T14:16:45;0.80;;;0.60;;
11414;SDS011;5763;42.714;23.244;2022-09-20T14:19:14;2.30;;;1.00;;
11414;SDS011;5763;42.714;23.244;2022-09-20T14:21:43;3.60;;;0.82;;
11414;SDS011;5763;42.714;23.244;2022-09-20T14:24:22;2.00;;;0.95;;
11414;SDS011;5763;42.714;23.244;2022-09-20T14:27:00;1.48;;;0.60;;
11414;SDS011;5763;42.714;23.244;2022-09-20T14:29:35;2.67;;;0.82;;
11414;SDS011;5763;42.714;23.244;2022-09-20T14:32:04;0.80;;;0.60;;
11414;SDS011;5763;42.714;23.244;2022-09-20T14:34:36;0.88;;;0.68;;
11414;SDS011;5763;42.714;23.244;2022-09-20T14:37:06;0.85;;;0.65;;
11414;SDS011;5763;42.714;23.244;2022-09-20T14:39:42;0.70;;;0.70;;
11414;SDS011;5763;42.714;23.244;2022-09-20T14:42:24;1.95;;;0.50;;
11414;SDS011;5763;42.714;23.244;2022-09-20T14:44:55;1.67;;;0.60;;
11414;SDS011;5763;42.714;23.244;2022-09-20T14:47:24;3.15;;;0.80;;
11414;SDS011;5763;42.714;23.244;2022-09-20T14:49:52;1.08;;;0.63;;
11414;SDS011;5763;42.714;23.244;2022-09-20T14:52:30;1.17;;;0.60;;
11414;SDS011;5763;42.714;23.244;2022-09-20T14:55:01;0.77;;;0.60;;
11414;SDS011;5763;42.714;23.244;2022-09-20T14:57:41;0.70;;;0.70;;
11414;SDS011;5763;42.714;23.244;2022-09-20T15:00:09;1.27;;;0.73;;
11414;SDS011;5763;42.714;23.244;2022-09-20T15:02:39;1.13;;;0.70;;
11414;SDS011;5763;42.714;23.244;2022-09-20T15:05:15;3.33;;;0.80;;
11414;SDS011;5763;42.714;23.244;2022-09-20T15:07:49;2.05;;;0.80;;
11414;SDS011;5763;42.714;23.244;2022-09-20T15:10:16;0.63;;;0.63;;
11414;SDS011;5763;42.714;23.244;2022-09-20T15:12:43;1.05;;;0.90;;
11414;SDS011;5763;42.714;23.244;2022-09-20T15:15:11;1.55;;;0.70;;
11414;SDS011;5763;42.714;23.244;2022-09-20T15:17:43;2.45;;;0.95;;
11414;SDS011;5763;42.714;23.244;2022-09-20T15:20:15;1.67;;;0.90;;
11414;SDS011;5763;42.714;23.244;2022-09-20T15:22:45;2.40;;;0.82;;
11414;SDS011;5763;42.714;23.244;2022-09-20T15:25:15;1.42;;;1.00;;
11414;SDS011;5763;42.714;23.244;2022-09-20T15:27:44;3.08;;;1.17;;
11414;SDS011;5763;42.714;23.244;2022-09-20T15:30:13;2.28;;;0.90;;
11414;SDS011;5763;42.714;23.244;2022-09-20T15:32:41;3.33;;;0.98;;
11414;SDS011;5763;42.714;23.244;2022-09-20T15:35:09;1.30;;;1.17;;
11414;SDS011;5763;42.714;23.244;2022-09-20T15:37:37;1.90;;;1.10;;
11414;SDS011;5763;42.714;23.244;2022-09-20T15:40:04;1.63;;;1.20;;
11414;SDS011;5763;42.714;23.244;2022-09-20T15:42:34;1.67;;;1.23;;
11414;SDS011;5763;42.714;23.244;2022-09-20T15:45:04;1.60;;;0.90;;
11414;SDS011;5763;42.714;23.244;2022-09-20T15:47:33;1.15;;;1.05;;
11414;SDS011;5763;42.714;23.244;2022-09-20T15:50:00;1.48;;;1.15;;
11414;SDS011;5763;42.714;23.244;2022-09-20T15:52:31;1.60;;;1.50;;
11414;SDS011;5763;42.714;23.244;2022-09-20T15:54:58;1.63;;;1.52;;
11414;SDS011;5763;42.714;23.244;2022-09-20T15:57:27;3.25;;;1.50;;
11414;SDS011;5763;42.714;23.244;2022-09-20T15:59:56;1.70;;;1.35;;
11414;SDS011;5763;42.714;23.244;2022-09-20T16:02:23;2.70;;;1.50;;
11414;SDS011;5763;42.714;23.244;2022-09-20T16:04:50;1.98;;;1.50;;
11414;SDS011;5763;42.714;23.244;2022-09-20T16:07:19;1.63;;;1.52;;
11414;SDS011;5763;42.714;23.244;2022-09-20T16:09:49;1.27;;;1.17;;
11414;SDS011;5763;42.714;23.244;2022-09-20T16:12:16;3.53;;;1.70;;
11414;SDS011;5763;42.714;23.244;2022-09-20T16:14:43;1.35;;;1.25;;
11414;SDS011;5763;42.714;23.244;2022-09-20T16:17:13;1.33;;;1.20;;
11414;SDS011;5763;42.714;23.244;2022-09-20T16:19:40;2.92;;;1.35;;
11414;SDS011;5763;42.714;23.244;2022-09-20T16:22:06;1.65;;;1.27;;
11414;SDS011;5763;42.714;23.244;2022-09-20T16:24:34;1.92;;;1.20;;
11414;SDS011;5763;42.714;23.244;2022-09-20T16:27:02;2.95;;;1.23;;
11414;SDS011;5763;42.714;23.244;2022-09-20T16:29:30;1.65;;;1.20;;
11414;SDS011;5763;42.714;23.244;2022-09-20T16:31:58;2.58;;;1.30;;
11414;SDS011;5763;42.714;23.244;2022-09-20T16:34:29;1.80;;;1.40;;
11414;SDS011;5763;42.714;23.244;2022-09-20T16:36:57;2.90;;;1.20;;
11414;SDS011;5763;42.714;23.244;2022-09-20T16:39:26;1.38;;;1.13;;